Time,TemperatureF,DewpointF,PressureIn,WindDirection,WindDirectionDegrees,WindSpeedMPH,WindSpeedGustMPH,Humidity,HourlyPrecipIn,Conditions,Clouds,dailyrainin,SoftwareType,DateUTC
2013-09-25 00:07:00,58.8,50.2,29.74,NNE,22,4.2,-999.0,73,-99.99,,,0.00,Acu-Link.com,2013-09-25 07:07:00,
2013-09-25 00:22:00,58.5,49.9,29.73,West,270,1.7,-999.0,73,-99.99,,,0.00,Acu-Link.com,2013-09-25 07:22:00,
2013-09-25 00:37:00,58.8,50.2,29.72,West,270,3.7,-999.0,73,-99.99,,,0.00,Acu-Link.com,2013-09-25 07:37:00,
2013-09-25 00:52:00,58.5,49.9,29.73,North,0,4.2,-999.0,73,-99.99,,,0.00,Acu-Link.com,2013-09-25 07:52:00,
2013-09-25 01:08:00,58.5,50.2,29.73,ENE,67,7.8,-999.0,74,-99.99,,,0.00,Acu-Link.com,2013-09-25 08:08:00,
2013-09-25 01:23:00,58.3,50.4,29.73,SSE,157,3.7,-999.0,75,-99.99,,,0.00,Acu-Link.com,2013-09-25 08:23:00,
2013-09-25 01:38:00,58.1,51.3,29.74,NE,45,1.7,-999.0,78,-99.99,,,0.00,Acu-Link.com,2013-09-25 08:38:00,
2013-09-25 01:54:00,57.7,51.6,29.73,NNE,22,6.8,-999.0,80,-99.99,,,0.00,Acu-Link.com,2013-09-25 08:54:00,
2013-09-25 02:09:00,57.4,51.3,29.74,East,90,4.7,-999.0,80,-99.99,,,0.00,Acu-Link.com,2013-09-25 09:09:00,
2013-09-25 02:25:00,57.6,50.4,29.74,NE,45,4.2,-999.0,77,-99.99,,,0.00,Acu-Link.com,2013-09-25 09:25:00,
2013-09-25 02:40:00,57.4,50.6,29.74,South,180,1.7,-999.0,78,-99.99,,,0.00,Acu-Link.com,2013-09-25 09:40:00,
2013-09-25 02:55:00,57.0,51.2,29.74,South,180,7.8,-999.0,81,-99.99,,,0.00,Acu-Link.com,2013-09-25 09:55:00,
2013-09-25 03:11:00,57.0,51.6,29.73,South,180,2.7,-999.0,82,-99.99,,,0.00,Acu-Link.com,2013-09-25 10:11:00,
2013-09-25 03:26:00,56.7,51.6,29.73,NW,315,6.8,-999.0,83,-99.99,,,0.00,Acu-Link.com,2013-09-25 10:26:00,
2013-09-25 03:41:00,56.3,51.5,29.73,NE,45,2.7,-999.0,84,-99.99,,,0.00,Acu-Link.com,2013-09-25 10:41:00,
2013-09-25 03:56:00,56.3,50.9,29.73,NNW,337,0.0,-999.0,82,-99.99,,,0.00,Acu-Link.com,2013-09-25 10:56:00,
2013-09-25 04:12:00,56.7,50.6,29.73,NNE,22,4.7,-999.0,80,-99.99,,,0.00,Acu-Link.com,2013-09-25 11:12:00,
2013-09-25 04:28:00,56.8,50.0,29.72,WNW,292,3.2,-999.0,78,-99.99,,,0.00,Acu-Link.com,2013-09-25 11:28:00,
2013-09-25 04:43:00,56.7,49.9,29.73,ENE,67,1.1,-999.0,78,-99.99,,,0.00,Acu-Link.com,2013-09-25 11:43:00,
2013-09-25 04:58:00,55.9,50.2,29.73,SE,135,1.1,-999.0,81,-99.99,,,0.00,Acu-Link.com,2013-09-25 11:58:00,
2013-09-25 05:13:00,55.6,50.8,29.73,East,90,2.7,-999.0,84,-99.99,,,0.00,Acu-Link.com,2013-09-25 12:13:00,
2013-09-25 05:28:00,55.2,50.5,29.73,NNE,22,1.7,-999.0,84,-99.99,,,0.00,Acu-Link.com,2013-09-25 12:28:00,
2013-09-25 05:44:00,54.9,50.5,29.73,WSW,247,1.1,-999.0,85,-99.99,,,0.00,Acu-Link.com,2013-09-25 12:44:00,
2013-09-25 05:59:00,54.7,50.3,29.73,ESE,112,0.0,-999.0,85,-99.99,,,0.00,Acu-Link.com,2013-09-25 12:59:00,
2013-09-25 06:14:00,54.0,50.2,29.74,WNW,292,0.0,-999.0,87,-99.99,,,0.00,Acu-Link.com,2013-09-25 13:14:00,
2013-09-25 06:30:00,53.4,49.9,29.74,North,0,2.2,-999.0,88,-99.99,,,0.00,Acu-Link.com,2013-09-25 13:30:00,
2013-09-25 06:45:00,53.6,50.1,29.75,NNW,337,0.0,-999.0,88,-99.99,,,0.00,Acu-Link.com,2013-09-25 13:45:00,
2013-09-25 07:00:00,52.9,49.1,29.75,ESE,112,0.0,-999.0,87,-99.99,,,0.00,Acu-Link.com,2013-09-25 14:00:00,
2013-09-25 07:15:00,52.7,48.9,29.75,ESE,112,0.0,-999.0,87,-99.99,,,0.00,Acu-Link.com,2013-09-25 14:15:00,
2013-09-25 07:31:00,53.1,49.3,29.75,ESE,112,0.0,-999.0,87,-99.99,,,0.00,Acu-Link.com,2013-09-25 14:31:00,
2013-09-25 07:46:00,54.0,49.3,29.75,WSW,247,2.7,-999.0,84,-99.99,,,0.00,Acu-Link.com,2013-09-25 14:46:00,
2013-09-25 08:01:00,55.6,49.2,29.75,NE,45,1.7,-999.0,79,-99.99,,,0.00,Acu-Link.com,2013-09-25 15:01:00,
2013-09-25 08:16:00,60.8,50.2,29.75,WNW,292,1.7,-999.0,68,-99.99,,,0.00,Acu-Link.com,2013-09-25 15:16:00,
2013-09-25 08:32:00,64.8,47.8,29.75,NNE,22,5.3,-999.0,54,-99.99,,,0.00,Acu-Link.com,2013-09-25 15:32:00,
2013-09-25 08:47:00,67.1,48.4,29.75,WNW,292,5.8,-999.0,51,-99.99,,,0.00,Acu-Link.com,2013-09-25 15:47:00,
2013-09-25 09:02:00,68.0,49.7,29.75,South,180,1.7,-999.0,52,-99.99,,,0.00,Acu-Link.com,2013-09-25 16:02:00,
2013-09-25 09:17:00,67.6,49.9,29.76,South,180,3.2,-999.0,53,-99.99,,,0.00,Acu-Link.com,2013-09-25 16:17:00,
2013-09-25 09:33:00,67.6,49.9,29.76,NNE,22,5.3,-999.0,53,-99.99,,,0.00,Acu-Link.com,2013-09-25 16:33:00,
2013-09-25 09:48:00,69.3,50.9,29.76,North,0,2.2,-999.0,52,-99.99,,,0.00,Acu-Link.com,2013-09-25 16:48:00,
2013-09-25 10:03:00,69.6,49.6,29.76,West,270,3.7,-999.0,49,-99.99,,,0.00,Acu-Link.com,2013-09-25 17:03:00,
2013-09-25 10:18:00,68.4,49.0,29.75,WNW,292,3.7,-999.0,50,-99.99,,,0.00,Acu-Link.com,2013-09-25 17:18:00,
2013-09-25 10:33:00,70.9,49.7,29.76,North,0,1.7,-999.0,47,-99.99,,,0.00,Acu-Link.com,2013-09-25 17:33:00,
2013-09-25 10:49:00,69.6,50.1,29.76,NNW,337,2.7,-999.0,50,-99.99,,,0.00,Acu-Link.com,2013-09-25 17:49:00,
2013-09-25 11:05:00,72.0,51.2,29.75,SSE,157,6.3,-999.0,48,-99.99,,,0.00,Acu-Link.com,2013-09-25 18:05:00,
2013-09-25 11:20:00,70.7,50.0,29.75,NNE,22,3.7,-999.0,48,-99.99,,,0.00,Acu-Link.com,2013-09-25 18:20:00,
2013-09-25 11:35:00,72.1,49.6,29.75,SSE,157,4.7,-999.0,45,-99.99,,,0.00,Acu-Link.com,2013-09-25 18:35:00,
2013-09-25 11:50:00,73.8,50.5,29.75,ENE,67,2.7,-999.0,44,-99.99,,,0.00,Acu-Link.com,2013-09-25 18:50:00,
2013-09-25 12:06:00,73.2,50.0,29.75,NNE,22,3.7,-999.0,44,-99.99,,,0.00,Acu-Link.com,2013-09-25 19:06:00,
2013-09-25 12:21:00,70.5,49.3,29.74,NNE,22,5.8,-999.0,47,-99.99,,,0.00,Acu-Link.com,2013-09-25 19:21:00,
2013-09-25 12:36:00,71.1,50.4,29.73,NNW,337,2.7,-999.0,48,-99.99,,,0.00,Acu-Link.com,2013-09-25 19:36:00,
2013-09-25 12:51:00,70.3,50.2,29.73,South,180,4.7,-999.0,49,-99.99,,,0.00,Acu-Link.com,2013-09-25 19:51:00,
2013-09-25 13:06:00,72.1,50.7,29.73,North,0,2.2,-999.0,47,-99.99,,,0.00,Acu-Link.com,2013-09-25 20:06:00,
2013-09-25 13:21:00,72.0,50.1,29.73,NE,45,2.7,-999.0,46,-99.99,,,0.00,Acu-Link.com,2013-09-25 20:21:00,
2013-09-25 13:36:00,71.6,49.7,29.72,North,0,8.3,-999.0,46,-99.99,,,0.00,Acu-Link.com,2013-09-25 20:36:00,
2013-09-25 13:51:00,73.8,49.9,29.71,SSW,202,1.7,-999.0,43,-99.99,,,0.00,Acu-Link.com,2013-09-25 20:51:00,
2013-09-25 14:06:00,72.7,48.9,29.71,NNE,22,3.2,-999.0,43,-99.99,,,0.00,Acu-Link.com,2013-09-25 21:06:00,
2013-09-25 14:22:00,74.1,48.9,29.71,WNW,292,3.7,-999.0,41,-99.99,,,0.00,Acu-Link.com,2013-09-25 21:22:00,
2013-09-25 14:37:00,73.4,48.9,29.70,North,0,4.7,-999.0,42,-99.99,,,0.00,Acu-Link.com,2013-09-25 21:37:00,
2013-09-25 14:52:00,70.7,48.3,29.70,NNE,22,5.3,-999.0,45,-99.99,,,0.00,Acu-Link.com,2013-09-25 21:52:00,
2013-09-25 15:07:00,70.3,47.9,29.70,NNW,337,8.3,-999.0,45,-99.99,,,0.00,Acu-Link.com,2013-09-25 22:07:00,
2013-09-25 15:23:00,72.0,48.9,29.69,SSE,157,3.2,-999.0,44,-99.99,,,0.00,Acu-Link.com,2013-09-25 22:23:00,
2013-09-25 15:38:00,71.2,49.9,29.69,NNE,22,3.7,-999.0,47,-99.99,,,0.00,Acu-Link.com,2013-09-25 22:38:00,
2013-09-25 15:53:00,72.1,49.6,29.68,West,270,7.3,-999.0,45,-99.99,,,0.00,Acu-Link.com,2013-09-25 22:53:00,
2013-09-25 16:08:00,70.3,49.1,29.68,North,0,6.8,-999.0,47,-99.99,,,0.00,Acu-Link.com,2013-09-25 23:08:00,
2013-09-25 16:23:00,71.8,49.9,29.68,NE,45,2.2,-999.0,46,-99.99,,,0.00,Acu-Link.com,2013-09-25 23:23:00,
2013-09-25 16:38:00,69.8,49.8,29.67,NNE,22,6.8,-999.0,49,-99.99,,,0.00,Acu-Link.com,2013-09-25 23:38:00,
2013-09-25 16:54:00,69.1,49.7,29.67,NNE,22,10.4,-999.0,50,-99.99,,,0.00,Acu-Link.com,2013-09-25 23:54:00,
2013-09-25 17:09:00,69.6,50.1,29.66,NNE,22,2.2,-999.0,50,-99.99,,,0.00,Acu-Link.com,2013-09-26 00:09:00,
2013-09-25 17:24:00,68.4,49.0,29.66,ENE,67,6.8,-999.0,50,-99.99,,,0.00,Acu-Link.com,2013-09-26 00:24:00,
2013-09-25 17:39:00,69.1,49.1,29.66,NNW,337,6.8,-999.0,49,-99.99,,,0.00,Acu-Link.com,2013-09-26 00:39:00,
2013-09-25 17:55:00,68.2,48.8,29.65,West,270,2.7,-999.0,50,-99.99,,,0.00,Acu-Link.com,2013-09-26 00:55:00,
2013-09-25 18:10:00,67.5,48.2,29.65,SSE,157,1.7,-999.0,50,-99.99,,,0.00,Acu-Link.com,2013-09-26 01:10:00,
2013-09-25 18:25:00,64.6,47.6,29.65,ESE,112,2.2,-999.0,54,-99.99,,,0.00,Acu-Link.com,2013-09-26 01:25:00,
2013-09-25 18:41:00,61.5,47.0,29.65,West,270,2.7,-999.0,59,-99.99,,,0.00,Acu-Link.com,2013-09-26 01:41:00,
2013-09-25 18:56:00,60.1,47.5,29.64,NW,315,1.7,-999.0,63,-99.99,,,0.00,Acu-Link.com,2013-09-26 01:56:00,
2013-09-25 19:11:00,59.2,47.4,29.64,ESE,112,2.2,-999.0,65,-99.99,,,0.00,Acu-Link.com,2013-09-26 02:11:00,
2013-09-25 19:26:00,58.6,47.7,29.63,West,270,3.2,-999.0,67,-99.99,,,0.00,Acu-Link.com,2013-09-26 02:26:00,
2013-09-25 19:41:00,58.3,47.4,29.64,West,270,4.2,-999.0,67,-99.99,,,0.00,Acu-Link.com,2013-09-26 02:41:00,
2013-09-25 19:57:00,58.1,46.4,29.64,NE,45,3.7,-999.0,65,-99.99,,,0.00,Acu-Link.com,2013-09-26 02:57:00,
2013-09-25 20:12:00,58.5,45.9,29.64,ESE,112,3.2,-999.0,63,-99.99,,,0.00,Acu-Link.com,2013-09-26 03:12:00,
2013-09-25 20:27:00,58.3,45.8,29.64,North,0,2.2,-999.0,63,-99.99,,,0.00,Acu-Link.com,2013-09-26 03:27:00,
2013-09-25 20:42:00,57.7,46.4,29.64,SE,135,6.8,-999.0,66,-99.99,,,0.00,Acu-Link.com,2013-09-26 03:42:00,
2013-09-25 20:58:00,57.4,46.9,29.65,East,90,1.1,-999.0,68,-99.99,,,0.00,Acu-Link.com,2013-09-26 03:58:00,
2013-09-25 21:13:00,57.2,46.7,29.64,NNE,22,3.2,-999.0,68,-99.99,,,0.00,Acu-Link.com,2013-09-26 04:13:00,
2013-09-25 21:28:00,57.2,46.7,29.64,East,90,1.7,-999.0,68,-99.99,,,0.00,Acu-Link.com,2013-09-26 04:28:00,
2013-09-25 21:43:00,57.2,46.7,29.65,North,0,2.7,-999.0,68,-99.99,,,0.00,Acu-Link.com,2013-09-26 04:43:00,
2013-09-25 21:58:00,57.0,46.5,29.66,ESE,112,0.0,-999.0,68,-99.99,,,0.00,Acu-Link.com,2013-09-26 04:58:00,
2013-09-25 22:14:00,56.3,46.6,29.66,WNW,292,0.0,-999.0,70,-99.99,,,0.00,Acu-Link.com,2013-09-26 05:14:00,
2013-09-25 22:29:00,55.8,46.5,29.66,ESE,112,1.1,-999.0,71,-99.99,,,0.00,Acu-Link.com,2013-09-26 05:29:00,
2013-09-25 22:44:00,55.6,46.7,29.66,NW,315,0.0,-999.0,72,-99.99,,,0.00,Acu-Link.com,2013-09-26 05:44:00,
2013-09-25 22:59:00,55.0,46.1,29.66,ESE,112,0.0,-999.0,72,-99.99,,,0.00,Acu-Link.com,2013-09-26 05:59:00,
2013-09-25 23:15:00,54.7,47.3,29.66,WSW,247,4.2,-999.0,76,-99.99,,,0.00,Acu-Link.com,2013-09-26 06:15:00,
2013-09-25 23:30:00,54.3,46.9,29.66,NE,45,0.0,-999.0,76,-99.99,,,0.00,Acu-Link.com,2013-09-26 06:30:00,
2013-09-25 23:45:00,54.3,46.9,29.66,NNW,337,0.0,-999.0,76,-99.99,,,0.00,Acu-Link.com,2013-09-26 06:45:00,